Time;durP1;ratioP1;P1;durP2;ratioP2;P2;SDS_P1;SDS_P2;PMS_P1;PMS_P2;Temp;Humidity;BMP_temperature;BMP_pressure;BME280_temperature;BME280_humidity;BME280_pressure;Samples;Min_cycle;Max_cycle;Signal;HPM_P1;HPM_P2
2024/02/24 00:00:54;;;;;;;;;;;;;;;9.51;85.12;94900.94;107080;1298;23654;-85
2024/02/24 00:03:40;;;;;;;;;;;;;;;9.51;85.20;94897.55;107154;1300;22589;-85
2024/02/24 00:06:06;;;;;;;;;;;;;;;9.52;85.34;94889.07;107039;1294;22537;-86
2024/02/24 00:08:33;;;;;;;;;;;;;;;9.51;85.35;94891.07;107229;1295;22575;-86
2024/02/24 00:10:59;;;;;;;;;;;;;;;9.54;85.14;94880.20;107201;1293;22553;-85
2024/02/24 00:13:26;;;;;;;;;;;;;;;9.54;84.87;94885.30;107169;1289;22544;-85
2024/02/24 00:15:53;;;;;;;;;;;;;;;9.56;84.50;94881.09;107224;1292;22550;-85
2024/02/24 00:18:19;;;;;;;;;;;;;;;9.58;85.04;94877.77;107103;1292;23977;-85
2024/02/24 00:20:46;;;;;;;;;;;;;;;9.57;84.49;94878.73;107240;1294;22523;-85
2024/02/24 00:23:12;;;;;;;;;;;;;;;9.57;84.59;94885.33;107122;1295;23347;-85
2024/02/24 00:25:39;;;;;;;;;;;;;;;9.57;84.73;94884.08;107138;1294;22554;-85
2024/02/24 00:28:07;;;;;;;;;;;;;;;9.57;84.70;94881.61;107197;1295;22549;-85
2024/02/24 00:30:34;;;;;;;;;;;;;;;9.58;84.86;94882.03;107255;1296;25445;-85
2024/02/24 00:33:01;;;;;;;;;;;;;;;9.58;84.16;94887.06;106989;1293;22604;-85
2024/02/24 00:35:31;;;;;;;;;;;;;;;9.57;84.91;94893.73;107001;1300;22575;-85
2024/02/24 00:37:57;;;;;;;;;;;;;;;9.57;84.35;94889.06;107089;1300;23716;-85
2024/02/24 00:40:24;;;;;;;;;;;;;;;9.59;84.45;94887.81;107243;1298;22537;-85
2024/02/24 00:42:50;;;;;;;;;;;;;;;9.59;84.43;94896.23;107164;1300;22531;-85
2024/02/24 00:45:16;;;;;;;;;;;;;;;9.59;84.54;94905.33;107019;1294;22564;-85
2024/02/24 00:47:43;;;;;;;;;;;;;;;9.58;84.53;94914.87;107117;1294;22558;-85
2024/02/24 00:50:10;;;;;;;;;;;;;;;9.58;84.34;94907.13;107022;1300;22529;-84
2024/02/24 00:52:36;;;;;;;;;;;;;;;9.58;84.94;94893.25;107217;1295;22579;-84
2024/02/24 00:55:02;;;;;;;;;;;;;;;9.59;84.76;94897.77;107091;1298;23755;-85
2024/02/24 00:57:29;;;;;;;;;;;;;;;9.60;84.14;94891.39;107134;1300;23008;-85
2024/02/24 00:59:55;;;;;;;;;;;;;;;9.64;84.45;94884.32;106948;1297;22573;-85
2024/02/24 01:02:22;;;;;;;;;;;;;;;9.65;84.88;94881.76;107217;1295;22615;-85
2024/02/24 01:04:52;;;;;;;;;;;;;;;9.65;85.11;94878.38;107157;1295;22531;-86
2024/02/24 01:07:18;;;;;;;;;;;;;;;9.61;85.14;94875.02;107144;1298;25411;-84
2024/02/24 01:09:45;;;;;;;;;;;;;;;9.60;84.55;94878.61;107123;1291;25273;-85
2024/02/24 01:12:11;;;;;;;;;;;;;;;9.60;84.99;94883.47;107105;1295;22520;-85
2024/02/24 01:14:38;;;;;;;;;;;;;;;9.60;84.84;94883.84;107201;1295;23392;-84
2024/02/24 01:17:04;;;;;;;;;;;;;;;9.60;84.91;94882.23;107178;1292;22536;-85
2024/02/24 01:19:30;;;;;;;;;;;;;;;9.58;84.97;94885.95;107138;1300;22526;-84
2024/02/24 01:21:57;;;;;;;;;;;;;;;9.57;84.89;94880.05;106989;1295;24203;-84
2024/02/24 01:24:23;;;;;;;;;;;;;;;9.57;85.01;94878.97;107064;1300;22553;-84
2024/02/24 01:26:51;;;;;;;;;;;;;;;9.59;84.96;94877.40;107210;1300;22563;-84
2024/02/24 01:29:17;;;;;;;;;;;;;;;9.59;84.77;94885.10;107100;1300;22556;-84
2024/02/24 01:31:43;;;;;;;;;;;;;;;9.61;85.18;94875.05;107056;1300;22543;-85
2024/02/24 01:34:10;;;;;;;;;;;;;;;9.61;86.18;94875.77;107231;1295;22563;-84
2024/02/24 01:36:37;;;;;;;;;;;;;;;9.57;86.92;94875.78;107073;1300;24237;-84
2024/02/24 01:39:03;;;;;;;;;;;;;;;9.52;86.92;94871.84;107105;1295;23769;-84
2024/02/24 01:41:29;;;;;;;;;;;;;;;9.48;87.65;94871.48;107204;1300;22530;-85
2024/02/24 01:43:56;;;;;;;;;;;;;;;9.44;88.25;94869.47;107099;1295;22551;-85
2024/02/24 01:46:22;;;;;;;;;;;;;;;9.38;88.50;94860.46;107026;1295;22555;-84
2024/02/24 01:48:48;;;;;;;;;;;;;;;9.34;88.84;94854.03;107211;1292;25407;-85
2024/02/24 01:51:15;;;;;;;;;;;;;;;9.32;88.98;94857.29;107111;1300;22553;-85
2024/02/24 01:53:41;;;;;;;;;;;;;;;9.30;89.50;94846.90;106987;1292;22656;-85
2024/02/24 01:56:08;;;;;;;;;;;;;;;9.26;89.77;94813.33;107034;1300;25430;-85
2024/02/24 01:58:35;;;;;;;;;;;;;;;9.22;89.73;94791.59;107052;1300;22564;-85
2024/02/24 02:01:02;;;;;;;;;;;;;;;9.21;89.43;94765.89;107133;1288;22567;-85
2024/02/24 02:03:28;;;;;;;;;;;;;;;9.18;90.06;94771.10;107037;1300;22520;-85
2024/02/24 02:05:55;;;;;;;;;;;;;;;9.14;90.12;94782.90;107015;1300;22516;-85
2024/02/24 02:08:22;;;;;;;;;;;;;;;9.13;89.82;94788.20;107044;1291;24179;-85
2024/02/24 02:10:51;;;;;;;;;;;;;;;9.12;89.84;94808.91;107107;1295;23770;-85
2024/02/24 02:13:17;;;;;;;;;;;;;;;9.13;89.88;94793.69;107066;1295;22578;-85
2024/02/24 02:15:44;;;;;;;;;;;;;;;9.13;89.52;94778.77;107000;1300;22701;-85
2024/02/24 02:18:10;;;;;;;;;;;;;;;9.12;90.00;94761.91;107211;1300;22560;-85
2024/02/24 02:20:36;;;;;;;;;;;;;;;9.11;89.52;94758.84;107091;1295;22565;-84
2024/02/24 02:23:03;;;;;;;;;;;;;;;9.10;89.40;94760.95;106994;1292;22558;-84
2024/02/24 02:25:30;;;;;;;;;;;;;;;9.10;89.57;94752.06;107000;1298;22549;-85
2024/02/24 02:27:56;;;;;;;;;;;;;;;9.12;89.14;94751.11;107213;1295;22562;-84
2024/02/24 02:30:23;;;;;;;;;;;;;;;9.12;89.22;94751.79;107191;1300;22569;-84
2024/02/24 02:32:50;;;;;;;;;;;;;;;9.12;89.20;94768.20;107227;1300;22537;-84
2024/02/24 02:35:17;;;;;;;;;;;;;;;9.11;88.84;94762.43;107064;1300;22567;-85
2024/02/24 02:37:43;;;;;;;;;;;;;;;9.10;89.12;94765.30;107171;1292;23138;-84
2024/02/24 02:40:10;;;;;;;;;;;;;;;9.09;88.93;94766.98;107189;1300;23272;-85
2024/02/24 02:42:36;;;;;;;;;;;;;;;9.09;89.13;94773.40;107054;1300;22566;-85
2024/02/24 02:45:03;;;;;;;;;;;;;;;9.06;89.26;94783.75;107019;1291;22558;-85
2024/02/24 02:47:30;;;;;;;;;;;;;;;9.04;88.90;94786.00;107048;1297;24263;-85
2024/02/24 02:49:56;;;;;;;;;;;;;;;9.02;89.21;94805.27;107197;1294;25319;-84
2024/02/24 02:52:23;;;;;;;;;;;;;;;9.01;89.12;94814.28;107085;1295;22558;-84
2024/02/24 02:54:49;;;;;;;;;;;;;;;9.01;88.69;94809.70;107126;1298;22590;-83
2024/02/24 02:57:16;;;;;;;;;;;;;;;9.01;89.09;94822.53;107243;1295;22563;-84
2024/02/24 02:59:43;;;;;;;;;;;;;;;8.99;89.18;94833.71;107108;1300;24244;-84
2024/02/24 03:02:09;;;;;;;;;;;;;;;8.96;89.15;94828.07;107224;1300;22550;-84
2024/02/24 03:04:35;;;;;;;;;;;;;;;8.94;89.12;94835.40;107088;1301;23343;-84
2024/02/24 03:07:03;;;;;;;;;;;;;;;8.94;89.23;94844.72;107200;1292;22523;-84
2024/02/24 03:09:29;;;;;;;;;;;;;;;8.94;89.05;94834.67;107070;1294;25255;-84
2024/02/24 03:11:56;;;;;;;;;;;;;;;8.94;89.13;94830.33;107212;1295;22589;-84
2024/02/24 03:14:22;;;;;;;;;;;;;;;8.93;89.08;94820.49;106990;1300;22580;-84
2024/02/24 03:16:48;;;;;;;;;;;;;;;8.92;88.85;94816.59;107262;1300;24443;-85
2024/02/24 03:19:15;;;;;;;;;;;;;;;8.94;88.80;94825.11;107127;1282;22512;-84
2024/02/24 03:21:41;;;;;;;;;;;;;;;8.94;88.85;94828.63;107143;1293;22537;-84
2024/02/24 03:24:08;;;;;;;;;;;;;;;8.94;88.68;94835.43;107156;1295;22523;-84
2024/02/24 03:26:34;;;;;;;;;;;;;;;8.94;88.69;94836.88;107052;1294;22527;-84
2024/02/24 03:29:00;;;;;;;;;;;;;;;8.94;88.36;94837.04;107050;1295;22531;-84
2024/02/24 03:31:27;;;;;;;;;;;;;;;8.96;88.38;94848.95;107145;1295;22598;-84
2024/02/24 03:33:57;;;;;;;;;;;;;;;8.96;88.60;94856.48;107040;1295;22511;-84
2024/02/24 03:36:24;;;;;;;;;;;;;;;8.94;88.72;94863.34;107137;1300;22534;-84
2024/02/24 03:38:50;;;;;;;;;;;;;;;8.94;88.74;94866.16;107158;1300;22534;-84
2024/02/24 03:41:17;;;;;;;;;;;;;;;8.95;88.77;94867.52;107298;1298;22554;-84
2024/02/24 03:43:43;;;;;;;;;;;;;;;8.95;88.74;94873.19;107152;1292;22567;-85
2024/02/24 03:46:10;;;;;;;;;;;;;;;8.96;88.66;94871.95;107114;1295;24392;-84
2024/02/24 03:48:36;;;;;;;;;;;;;;;8.96;88.77;94883.27;107112;1295;22685;-84
2024/02/24 03:51:03;;;;;;;;;;;;;;;8.96;88.99;94891.08;107186;1298;22577;-84
2024/02/24 03:53:29;;;;;;;;;;;;;;;8.94;88.93;94899.41;107194;1300;22574;-84
2024/02/24 03:55:55;;;;;;;;;;;;;;;8.96;89.17;94911.29;107163;1297;22562;-84
2024/02/24 03:58:22;;;;;;;;;;;;;;;8.95;89.30;94914.91;107150;1300;23933;-84
2024/02/24 04:00:50;;;;;;;;;;;;;;;8.93;89.43;94935.10;107094;1295;22582;-84
2024/02/24 04:03:17;;;;;;;;;;;;;;;8.95;88.93;94934.60;107089;1300;22542;-84
2024/02/24 04:05:44;;;;;;;;;;;;;;;8.99;88.98;94937.81;106956;1301;22615;-85
2024/02/24 04:08:10;;;;;;;;;;;;;;;9.01;88.87;94921.26;107119;1295;24212;-84
2024/02/24 04:10:36;;;;;;;;;;;;;;;9.04;88.95;94930.20;107127;1294;23936;-84
2024/02/24 04:13:03;;;;;;;;;;;;;;;9.04;89.02;94925.08;107191;1293;25409;-84
2024/02/24 04:15:29;;;;;;;;;;;;;;;9.03;89.19;94922.55;107004;1300;22560;-84
2024/02/24 04:17:56;;;;;;;;;;;;;;;9.03;89.30;94926.42;107008;1291;23958;-84
2024/02/24 04:20:22;;;;;;;;;;;;;;;9.01;89.24;94931.51;107115;1295;24212;-84
2024/02/24 04:22:48;;;;;;;;;;;;;;;9.00;89.37;94930.91;107250;1300;22530;-84
2024/02/24 04:25:15;;;;;;;;;;;;;;;8.98;89.43;94932.71;107131;1292;22569;-85
2024/02/24 04:27:42;;;;;;;;;;;;;;;8.95;89.30;94930.45;107030;1300;22632;-84
2024/02/24 04:30:08;;;;;;;;;;;;;;;8.94;89.09;94939.01;107090;1295;22558;-84
2024/02/24 04:32:34;;;;;;;;;;;;;;;8.96;88.99;94949.66;107184;1292;22563;-85
2024/02/24 04:35:04;;;;;;;;;;;;;;;8.97;88.52;94947.02;107185;1300;23419;-84
2024/02/24 04:37:31;;;;;;;;;;;;;;;9.00;88.15;94953.59;107194;1297;25916;-84
2024/02/24 04:39:57;;;;;;;;;;;;;;;9.03;88.57;94964.38;107113;1300;22580;-84
2024/02/24 04:42:24;;;;;;;;;;;;;;;9.05;88.05;94953.64;106993;1292;22624;-84
2024/02/24 04:44:51;;;;;;;;;;;;;;;9.09;87.94;94955.65;107113;1300;25423;-84
2024/02/24 04:47:22;;;;;;;;;;;;;;;9.12;87.78;94952.19;107072;1295;23169;-84
2024/02/24 04:49:49;;;;;;;;;;;;;;;9.12;87.69;94947.16;107244;1292;22555;-84
2024/02/24 04:52:15;;;;;;;;;;;;;;;9.15;87.66;94952.09;107041;1298;22595;-84
2024/02/24 04:54:41;;;;;;;;;;;;;;;9.14;87.98;94945.95;107087;1298;22531;-85
2024/02/24 04:57:08;;;;;;;;;;;;;;;9.13;88.57;94951.50;107103;1300;22527;-84
2024/02/24 04:59:35;;;;;;;;;;;;;;;9.10;88.81;94949.27;107139;1300;22553;-85
2024/02/24 05:02:01;;;;;;;;;;;;;;;9.08;88.85;94951.42;107269;1298;22551;-84
2024/02/24 05:04:28;;;;;;;;;;;;;;;9.09;88.77;94953.81;107044;1292;25434;-84
2024/02/24 05:06:54;;;;;;;;;;;;;;;9.09;88.89;94952.94;107113;1295;22528;-84
2024/02/24 05:09:21;;;;;;;;;;;;;;;9.08;89.32;94966.90;107203;1292;23330;-84
2024/02/24 05:11:47;;;;;;;;;;;;;;;9.04;89.77;94962.73;107274;1288;22946;-84
2024/02/24 05:14:16;;;;;;;;;;;;;;;9.02;89.40;94972.47;106996;1300;22548;-84
2024/02/24 05:16:43;;;;;;;;;;;;;;;9.02;89.44;94974.83;106973;1300;22582;-85
2024/02/24 05:19:09;;;;;;;;;;;;;;;9.02;89.30;94950.71;107010;1292;22524;-85
2024/02/24 05:21:36;;;;;;;;;;;;;;;9.01;89.49;94960.95;107063;1295;22954;-85
2024/02/24 05:24:03;;;;;;;;;;;;;;;8.99;89.88;94960.26;107034;1295;25243;-85
2024/02/24 05:26:29;;;;;;;;;;;;;;;8.95;90.10;94917.23;107103;1295;22527;-85
2024/02/24 05:28:56;;;;;;;;;;;;;;;8.92;90.13;94889.33;106958;1295;22514;-85
2024/02/24 05:31:22;;;;;;;;;;;;;;;8.90;90.11;94899.02;107187;1300;22551;-85
2024/02/24 05:33:50;;;;;;;;;;;;;;;8.89;90.09;94930.52;106995;1285;25411;-85
2024/02/24 05:36:18;;;;;;;;;;;;;;;8.88;90.08;94939.45;107125;1298;24077;-85
2024/02/24 05:38:45;;;;;;;;;;;;;;;8.87;90.18;94949.73;107237;1300;23801;-85
2024/02/24 05:41:12;;;;;;;;;;;;;;;8.85;90.41;94951.56;107122;1300;22537;-85
2024/02/24 05:43:38;;;;;;;;;;;;;;;8.82;90.73;94954.73;107067;1282;22560;-85
2024/02/24 05:46:06;;;;;;;;;;;;;;;8.78;91.11;94971.77;107213;1300;22526;-86
2024/02/24 05:48:35;;;;;;;;;;;;;;;8.71;91.30;94974.33;107256;1299;22526;-85
2024/02/24 05:51:04;;;;;;;;;;;;;;;8.69;91.33;94990.08;107131;1282;24874;-85
2024/02/24 05:53:31;;;;;;;;;;;;;;;8.64;91.26;94988.87;107201;1298;25274;-85
2024/02/24 05:55:57;;;;;;;;;;;;;;;8.62;91.05;94993.05;106984;1300;22570;-85
2024/02/24 05:58:24;;;;;;;;;;;;;;;8.58;91.20;95001.45;107015;1292;22571;-85
2024/02/24 06:00:50;;;;;;;;;;;;;;;8.57;91.14;95013.73;107227;1297;22540;-85
2024/02/24 06:03:17;;;;;;;;;;;;;;;8.57;90.84;95024.39;107093;1299;22653;-85
2024/02/24 06:05:43;;;;;;;;;;;;;;;8.56;90.95;95021.65;107102;1291;22642;-85
2024/02/24 06:08:09;;;;;;;;;;;;;;;8.57;90.98;95022.73;107241;1300;22520;-85
2024/02/24 06:10:37;;;;;;;;;;;;;;;8.56;91.03;95030.26;106969;1297;25528;-85
2024/02/24 06:13:04;;;;;;;;;;;;;;;8.60;90.86;95034.90;106976;1300;24221;-85
2024/02/24 06:15:31;;;;;;;;;;;;;;;8.62;90.94;95031.52;107031;1300;22554;-85
2024/02/24 06:17:57;;;;;;;;;;;;;;;8.64;90.89;95038.10;107056;1298;22527;-85
2024/02/24 06:20:24;;;;;;;;;;;;;;;8.67;90.87;95039.65;106967;1295;22571;-85
2024/02/24 06:22:51;;;;;;;;;;;;;;;8.69;90.99;95042.95;107139;1291;22535;-85
2024/02/24 06:25:17;;;;;;;;;;;;;;;8.71;90.75;95039.99;107046;1292;22549;-85
2024/02/24 06:27:44;;;;;;;;;;;;;;;8.73;90.77;95057.83;107003;1295;25438;-85
2024/02/24 06:30:10;;;;;;;;;;;;;;;8.75;90.67;95056.39;107071;1292;22528;-84
2024/02/24 06:32:37;;;;;;;;;;;;;;;8.78;90.75;95063.48;107224;1298;22534;-85
2024/02/24 06:35:04;;;;;;;;;;;;;;;8.78;90.74;95073.91;107052;1295;23381;-85
2024/02/24 06:37:31;;;;;;;;;;;;;;;8.81;90.71;95084.80;107008;1300;22572;-85
2024/02/24 06:39:57;;;;;;;;;;;;;;;8.83;90.60;95089.02;107194;1300;25435;-85
2024/02/24 06:42:24;;;;;;;;;;;;;;;8.85;90.69;95104.08;107053;1298;22553;-85
2024/02/24 06:44:50;;;;;;;;;;;;;;;8.88;91.24;95122.31;107070;1300;23839;-85
2024/02/24 06:47:17;;;;;;;;;;;;;;;8.89;91.48;95147.11;107072;1293;25339;-85
2024/02/24 06:49:45;;;;;;;;;;;;;;;8.80;92.19;95158.98;107221;1292;22566;-85
2024/02/24 06:52:11;;;;;;;;;;;;;;;8.52;92.24;95172.97;107046;1300;22528;-84
2024/02/24 06:54:41;;;;;;;;;;;;;;;8.25;93.33;95184.42;107071;1296;22592;-85
2024/02/24 06:57:07;;;;;;;;;;;;;;;7.98;93.69;95186.13;107264;1299;22536;-85
2024/02/24 06:59:34;;;;;;;;;;;;;;;7.77;93.92;95204.91;107147;1295;22542;-85
2024/02/24 07:02:01;;;;;;;;;;;;;;;7.65;94.51;95213.53;107319;1292;23427;-85
2024/02/24 07:04:30;;;;;;;;;;;;;;;7.52;94.59;95219.27;107036;1300;22495;-85
2024/02/24 07:06:56;;;;;;;;;;;;;;;7.39;95.11;95234.70;107134;1300;22576;-85
2024/02/24 07:09:22;;;;;;;;;;;;;;;7.30;95.12;95235.84;106970;1300;25284;-84
2024/02/24 07:11:49;;;;;;;;;;;;;;;7.22;96.09;95245.29;107117;1298;22526;-85
2024/02/24 07:14:15;;;;;;;;;;;;;;;7.17;96.69;95255.84;107109;1300;23698;-84
2024/02/24 07:16:42;;;;;;;;;;;;;;;7.13;97.44;95253.44;107105;1295;24299;-85
2024/02/24 07:19:09;;;;;;;;;;;;;;;7.04;97.77;95264.70;106890;1298;22558;-84
2024/02/24 07:21:40;;;;;;;;;;;;;;;6.98;98.28;95263.09;107025;1298;22752;-84
2024/02/24 07:24:07;;;;;;;;;;;;;;;6.94;99.12;95289.01;107102;1297;22686;-84
2024/02/24 07:26:40;;;;;;;;;;;;;;;6.85;99.22;95288.14;107102;1295;22536;-84
2024/02/24 07:29:07;;;;;;;;;;;;;;;6.76;99.27;95289.40;107136;1293;23357;-85
2024/02/24 07:31:50;;;;;;;;;;;;;;;6.68;99.71;95299.17;107081;1300;22487;-84
2024/02/24 07:34:18;;;;;;;;;;;;;;;6.61;99.67;95301.37;106928;1295;26020;-84
2024/02/24 07:36:45;;;;;;;;;;;;;;;6.53;100.00;95310.44;108235;1293;22439;-82
2024/02/24 07:39:11;;;;;;;;;;;;;;;6.47;100.00;95327.83;108215;1292;22442;-83
2024/02/24 07:41:41;;;;;;;;;;;;;;;6.44;100.00;95327.52;107123;1291;23012;-83
2024/02/24 07:44:08;;;;;;;;;;;;;;;6.36;100.00;95326.05;107040;1298;25285;-84
2024/02/24 07:46:34;;;;;;;;;;;;;;;6.35;100.00;95314.88;107009;1298;22551;-83
2024/02/24 07:49:01;;;;;;;;;;;;;;;6.33;100.00;95324.65;107037;1295;22531;-83
2024/02/24 07:51:28;;;;;;;;;;;;;;;6.31;100.00;95334.93;107134;1295;22544;-83
2024/02/24 07:53:54;;;;;;;;;;;;;;;6.30;100.00;95338.63;107077;1295;24018;-84
2024/02/24 07:56:21;;;;;;;;;;;;;;;6.31;100.00;95339.83;107070;1300;22563;-83
2024/02/24 07:58:48;;;;;;;;;;;;;;;6.32;100.00;95345.91;107152;1292;23042;-83
2024/02/24 08:01:14;;;;;;;;;;;;;;;6.31;100.00;95346.38;107113;1295;22596;-83
2024/02/24 08:03:41;;;;;;;;;;;;;;;6.29;100.00;95346.86;106984;1290;22585;-83
2024/02/24 08:06:07;;;;;;;;;;;;;;;6.26;100.00;95351.95;107005;1298;22535;-83
2024/02/24 08:08:36;;;;;;;;;;;;;;;6.24;100.00;95370.66;106919;1296;25313;-83
2024/02/24 08:11:02;;;;;;;;;;;;;;;6.24;100.00;95363.80;106931;1300;25287;-83
2024/02/24 08:13:29;;;;;;;;;;;;;;;6.19;100.00;95372.77;106809;1293;23365;-84
2024/02/24 08:15:56;;;;;;;;;;;;;;;6.14;100.00;95376.30;107054;1293;22847;-85
2024/02/24 08:18:22;;;;;;;;;;;;;;;6.06;100.00;95378.36;107013;1295;24173;-84
2024/02/24 08:20:49;;;;;;;;;;;;;;;6.01;100.00;95378.10;107017;1292;22519;-84
2024/02/24 08:23:15;;;;;;;;;;;;;;;5.96;100.00;95382.79;106976;1298;23266;-84
2024/02/24 08:25:42;;;;;;;;;;;;;;;5.93;100.00;95379.21;107031;1286;22500;-85
2024/02/24 08:28:08;;;;;;;;;;;;;;;5.92;100.00;95393.96;106821;1300;22537;-83
2024/02/24 08:30:34;;;;;;;;;;;;;;;5.93;100.00;95393.05;106933;1283;22581;-83
2024/02/24 08:33:02;;;;;;;;;;;;;;;5.91;100.00;95386.48;106968;1300;22647;-84
2024/02/24 08:35:29;;;;;;;;;;;;;;;5.86;100.00;95393.96;106843;1300;23784;-83
2024/02/24 08:37:56;;;;;;;;;;;;;;;5.82;100.00;95395.08;107059;1281;22531;-83
2024/02/24 08:40:22;;;;;;;;;;;;;;;5.83;100.00;95390.88;107023;1293;22710;-83
2024/02/24 08:42:48;;;;;;;;;;;;;;;5.79;100.00;95396.98;106899;1282;22551;-85
2024/02/24 08:45:15;;;;;;;;;;;;;;;5.76;100.00;95394.92;107074;1295;22524;-84
2024/02/24 08:47:41;;;;;;;;;;;;;;;5.76;100.00;95401.95;107004;1301;22666;-85
2024/02/24 08:50:07;;;;;;;;;;;;;;;5.77;100.00;95408.77;107001;1297;22578;-83
2024/02/24 08:52:34;;;;;;;;;;;;;;;5.73;100.00;95407.69;107071;1293;22499;-83
2024/02/24 08:55:00;;;;;;;;;;;;;;;5.70;100.00;95415.77;107011;1300;22523;-84
2024/02/24 08:57:27;;;;;;;;;;;;;;;5.70;100.00;95416.29;106989;1300;22580;-83
2024/02/24 08:59:53;;;;;;;;;;;;;;;5.71;100.00;95411.45;107008;1298;25447;-84
2024/02/24 09:02:20;;;;;;;;;;;;;;;5.70;100.00;95420.36;106722;1298;22519;-84
2024/02/24 09:04:47;;;;;;;;;;;;;;;5.68;100.00;95425.00;106878;1300;25447;-83
2024/02/24 09:07:13;;;;;;;;;;;;;;;5.71;100.00;95435.93;106959;1300;22570;-83
2024/02/24 09:09:40;;;;;;;;;;;;;;;5.69;100.00;95442.27;106951;1300;22553;-83
2024/02/24 09:12:06;;;;;;;;;;;;;;;5.67;100.00;95450.61;106831;1300;22520;-83
2024/02/24 09:14:33;;;;;;;;;;;;;;;5.67;100.00;95457.58;106907;1299;22534;-83
2024/02/24 09:16:59;;;;;;;;;;;;;;;5.69;100.00;95455.55;106924;1298;22540;-82
2024/02/24 09:19:26;;;;;;;;;;;;;;;5.73;100.00;95458.02;106782;1294;22557;-82
2024/02/24 09:21:53;;;;;;;;;;;;;;;5.75;100.00;95462.44;106896;1292;189422;-82
2024/02/24 09:24:19;;;;;;;;;;;;;;;5.72;100.00;95468.42;107018;1292;22650;-82
2024/02/24 09:26:46;;;;;;;;;;;;;;;5.69;100.00;95473.70;107070;1298;24256;-87
2024/02/24 09:29:12;;;;;;;;;;;;;;;5.66;100.00;95473.89;106863;1295;22604;-86
2024/02/24 09:31:40;;;;;;;;;;;;;;;5.63;100.00;95474.64;107092;1299;22531;-85
2024/02/24 09:34:08;;;;;;;;;;;;;;;5.65;100.00;95478.81;106821;1299;22546;-86
2024/02/24 09:36:41;;;;;;;;;;;;;;;5.71;100.00;95483.00;106959;1298;22676;-86
2024/02/24 09:39:15;;;;;;;;;;;;;;;5.76;100.00;95484.66;107038;1299;22863;-84
2024/02/24 09:41:41;;;;;;;;;;;;;;;5.79;100.00;95493.04;107028;1298;25596;-84
2024/02/24 09:44:08;;;;;;;;;;;;;;;5.82;100.00;95499.74;106943;1296;24316;-85
2024/02/24 09:46:34;;;;;;;;;;;;;;;5.84;100.00;95499.22;106920;1292;22947;-83
2024/02/24 09:49:01;;;;;;;;;;;;;;;5.85;100.00;95505.04;106908;1295;22543;-84
2024/02/24 09:51:28;;;;;;;;;;;;;;;5.88;100.00;95514.58;107020;1293;25469;-84
2024/02/24 09:53:55;;;;;;;;;;;;;;;5.91;100.00;95521.50;106825;1300;22563;-83
2024/02/24 09:56:22;;;;;;;;;;;;;;;5.95;100.00;95520.85;106906;1294;22499;-83
2024/02/24 09:58:49;;;;;;;;;;;;;;;5.98;100.00;95525.23;107087;1292;22528;-83
2024/02/24 10:01:16;;;;;;;;;;;;;;;5.99;100.00;95531.19;106935;1293;22534;-82
2024/02/24 10:03:43;;;;;;;;;;;;;;;5.98;100.00;95533.39;106947;1299;25881;-83
2024/02/24 10:06:11;;;;;;;;;;;;;;;5.99;100.00;95535.16;107031;1292;22697;-83
2024/02/24 10:08:40;;;;;;;;;;;;;;;6.01;100.00;95539.55;107120;1296;25457;-83
2024/02/24 10:11:09;;;;;;;;;;;;;;;6.03;100.00;95539.69;107043;1292;25935;-84
2024/02/24 10:13:35;;;;;;;;;;;;;;;6.06;100.00;95542.51;106950;1299;22574;-83
2024/02/24 10:16:08;;;;;;;;;;;;;;;6.07;100.00;95546.00;107002;1299;22529;-83
2024/02/24 10:18:34;;;;;;;;;;;;;;;6.10;100.00;95548.75;107034;1292;23029;-83
2024/02/24 10:21:00;;;;;;;;;;;;;;;6.13;100.00;95545.58;106936;1292;22523;-83
2024/02/24 10:23:27;;;;;;;;;;;;;;;6.19;100.00;95549.39;106908;1292;24380;-84
2024/02/24 10:25:57;;;;;;;;;;;;;;;6.24;100.00;95547.63;107056;1292;25948;-83
2024/02/24 10:28:25;;;;;;;;;;;;;;;6.30;100.00;95553.27;107297;1300;22583;-83
2024/02/24 10:30:52;;;;;;;;;;;;;;;6.34;100.00;95554.89;107410;1295;23234;-84
2024/02/24 10:33:19;;;;;;;;;;;;;;;6.41;100.00;95557.09;107255;1296;22533;-83
2024/02/24 10:35:46;;;;;;;;;;;;;;;6.47;100.00;95559.27;107142;1298;24270;-83
2024/02/24 10:38:13;;;;;;;;;;;;;;;6.52;100.00;95566.44;106919;1292;22529;-83
2024/02/24 10:40:39;;;;;;;;;;;;;;;6.56;100.00;95572.98;107169;1292;22527;-84
2024/02/24 10:43:06;;;;;;;;;;;;;;;6.61;100.00;95578.27;107089;1294;22594;-84
2024/02/24 10:45:32;;;;;;;;;;;;;;;6.64;100.00;95579.10;107230;1298;25015;-84
2024/02/24 10:47:59;;;;;;;;;;;;;;;6.66;100.00;95589.45;107328;1297;22502;-83
2024/02/24 10:50:25;;;;;;;;;;;;;;;6.69;100.00;95589.92;107311;1300;25259;-84
2024/02/24 10:52:51;;;;;;;;;;;;;;;6.70;100.00;95576.95;107117;1300;22539;-83
2024/02/24 10:55:18;;;;;;;;;;;;;;;6.69;100.00;95585.51;107164;1292;22686;-83
2024/02/24 10:57:45;;;;;;;;;;;;;;;6.72;100.00;95585.70;107160;1300;23846;-84
2024/02/24 11:00:25;;;;;;;;;;;;;;;6.75;100.00;95581.85;107057;1294;22564;-84
2024/02/24 11:02:51;;;;;;;;;;;;;;;6.74;100.00;95589.19;106857;1300;22531;-83
2024/02/24 11:05:18;;;;;;;;;;;;;;;6.74;100.00;95592.95;107048;1295;26003;-83
2024/02/24 11:07:44;;;;;;;;;;;;;;;6.74;100.00;95602.58;107065;1300;22537;-83
2024/02/24 11:10:18;;;;;;;;;;;;;;;6.72;100.00;95610.58;107020;1292;23380;-83
2024/02/24 11:12:44;;;;;;;;;;;;;;;6.70;100.00;95614.08;106965;1296;22534;-83
2024/02/24 11:15:18;;;;;;;;;;;;;;;6.71;100.00;95611.52;106789;1296;22573;-83
2024/02/24 11:17:50;;;;;;;;;;;;;;;6.74;100.00;95610.91;107072;1300;23259;-83
2024/02/24 11:20:40;;;;;;;;;;;;;;;6.73;100.00;95607.84;106863;1299;22530;-83
2024/02/24 11:23:26;;;;;;;;;;;;;;;6.75;100.00;95609.51;107033;1293;22524;-83
2024/02/24 11:26:11;;;;;;;;;;;;;;;6.76;100.00;95612.49;107149;1299;24230;-83
2024/02/24 11:28:37;;;;;;;;;;;;;;;6.77;100.00;95612.73;107180;1295;22542;-84
2024/02/24 11:31:04;;;;;;;;;;;;;;;6.75;100.00;95611.08;107186;1292;22494;-83
2024/02/24 11:33:38;;;;;;;;;;;;;;;6.75;100.00;95613.34;107086;1295;25256;-84
2024/02/24 11:36:05;;;;;;;;;;;;;;;6.79;100.00;95610.30;106952;1295;24323;-85
2024/02/24 11:38:32;;;;;;;;;;;;;;;6.80;100.00;95606.30;106916;1298;22527;-84
2024/02/24 11:41:03;;;;;;;;;;;;;;;6.79;100.00;95605.97;107033;1295;22543;-84
2024/02/24 11:43:30;;;;;;;;;;;;;;;6.80;100.00;95611.52;106916;1294;23784;-85
2024/02/24 11:45:56;;;;;;;;;;;;;;;6.81;100.00;95607.23;106749;1298;22998;-84
2024/02/24 11:48:23;;;;;;;;;;;;;;;6.83;100.00;95609.94;106965;1298;22581;-85
2024/02/24 11:50:50;;;;;;;;;;;;;;;6.82;100.00;95612.46;107127;1295;24273;-86
2024/02/24 11:53:17;;;;;;;;;;;;;;;6.80;100.00;95611.52;107089;1295;22574;-83
2024/02/24 11:55:45;;;;;;;;;;;;;;;6.83;100.00;95610.69;106936;1297;22634;-84
2024/02/24 11:58:15;;;;;;;;;;;;;;;6.85;100.00;95611.36;107222;1295;22802;-83
2024/02/24 12:00:41;;;;;;;;;;;;;;;6.87;100.00;95610.39;106994;1292;22583;-83
2024/02/24 12:03:12;;;;;;;;;;;;;;;6.92;100.00;95607.84;107089;1300;22546;-83
2024/02/24 12:05:38;;;;;;;;;;;;;;;6.99;100.00;95613.16;107265;1295;24176;-83
2024/02/24 12:08:06;;;;;;;;;;;;;;;7.02;100.00;95615.89;107247;1295;22597;-83
2024/02/24 12:10:36;;;;;;;;;;;;;;;7.06;100.00;95614.58;107158;1298;22550;-83
2024/02/24 12:13:06;;;;;;;;;;;;;;;7.12;100.00;95615.05;107104;1295;22566;-84
2024/02/24 12:15:34;;;;;;;;;;;;;;;7.16;100.00;95622.98;107150;1299;23400;-83
2024/02/24 12:18:01;;;;;;;;;;;;;;;7.22;100.00;95627.99;107167;1299;22570;-83
2024/02/24 12:20:27;;;;;;;;;;;;;;;7.27;100.00;95631.77;107134;1295;22501;-84
2024/02/24 12:22:54;;;;;;;;;;;;;;;7.31;100.00;95633.21;107352;1292;22629;-84
2024/02/24 12:25:21;;;;;;;;;;;;;;;7.35;100.00;95633.05;107046;1292;25961;-83
2024/02/24 12:27:48;;;;;;;;;;;;;;;7.39;100.00;95634.64;107395;1295;22605;-83
2024/02/24 12:30:14;;;;;;;;;;;;;;;7.44;100.00;95638.96;107388;1294;22595;-83
2024/02/24 12:32:42;;;;;;;;;;;;;;;7.48;100.00;95644.09;107179;1294;23012;-83
2024/02/24 12:35:13;;;;;;;;;;;;;;;7.52;100.00;95648.77;107212;1298;22531;-84
2024/02/24 12:37:41;;;;;;;;;;;;;;;7.57;100.00;95653.79;107273;1300;22558;-83
2024/02/24 12:40:09;;;;;;;;;;;;;;;7.61;100.00;95652.23;106996;1294;25441;-84
2024/02/24 12:42:39;;;;;;;;;;;;;;;7.65;100.00;95655.20;107165;1292;22665;-83